Terminal Aerodrome Forecast
Issued by NWS

Home | Current Version | Previous Version | Text Only | Print | Product List | Glossary On
Versions: 1 2 3 4 5 6 7 8 9 10 11 12 13 14 15 16 17 18 19 20 21 22 23 24 25
000
FTUS46 KMTR 182300
TAFSFO
TAF
KSFO 182321Z 1900/2006 29016G21KT P6SM FEW007
     FM190500 29009KT P6SM FEW007
     FM191000 27005KT P6SM BKN008
     FM191800 03004KT P6SM FEW010
     FM192100 30012KT P6SM FEW009
     FM192300 29015KT P6SM FEW009
     FM200500 28008KT P6SM SCT010=

USA.gov is the U.S. government's official web portal to all federal, state and local government web resources and services.